sensor_id;sensor_type;location;lat;lon;timestamp;P1;durP1;ratioP1;P2;durP2;ratioP2
60018;SDS011;45870;42.528;26.740;2023-01-10T00:00:21;3.53;;;2.08;;
60018;SDS011;45870;42.528;26.740;2023-01-10T00:02:48;4.53;;;2.67;;
60018;SDS011;45870;42.528;26.740;2023-01-10T00:05:14;4.70;;;2.97;;
60018;SDS011;45870;42.528;26.740;2023-01-10T00:07:40;7.18;;;2.95;;
60018;SDS011;45870;42.528;26.740;2023-01-10T00:10:07;6.45;;;2.03;;
60018;SDS011;45870;42.528;26.740;2023-01-10T00:12:33;5.47;;;2.88;;
60018;SDS011;45870;42.528;26.740;2023-01-10T00:15:17;9.98;;;4.90;;
60018;SDS011;45870;42.528;26.740;2023-01-10T00:17:43;9.80;;;2.85;;
60018;SDS011;45870;42.528;26.740;2023-01-10T00:20:09;4.28;;;1.60;;
60018;SDS011;45870;42.528;26.740;2023-01-10T00:22:35;3.95;;;2.70;;
60018;SDS011;45870;42.528;26.740;2023-01-10T00:25:01;2.15;;;1.58;;
60018;SDS011;45870;42.528;26.740;2023-01-10T00:27:27;10.23;;;2.83;;
60018;SDS011;45870;42.528;26.740;2023-01-10T00:29:52;6.47;;;3.40;;
60018;SDS011;45870;42.528;26.740;2023-01-10T00:32:19;5.95;;;3.28;;
60018;SDS011;45870;42.528;26.740;2023-01-10T00:34:45;5.30;;;1.85;;
60018;SDS011;45870;42.528;26.740;2023-01-10T00:37:12;5.72;;;1.88;;
60018;SDS011;45870;42.528;26.740;2023-01-10T00:39:38;3.25;;;2.35;;
60018;SDS011;45870;42.528;26.740;2023-01-10T00:42:04;5.50;;;3.40;;
60018;SDS011;45870;42.528;26.740;2023-01-10T00:44:48;6.03;;;3.92;;
60018;SDS011;45870;42.528;26.740;2023-01-10T00:47:14;8.35;;;2.53;;
60018;SDS011;45870;42.528;26.740;2023-01-10T00:49:40;4.47;;;2.10;;
60018;SDS011;45870;42.528;26.740;2023-01-10T00:52:05;3.75;;;1.65;;
60018;SDS011;45870;42.528;26.740;2023-01-10T00:54:31;3.88;;;2.15;;
60018;SDS011;45870;42.528;26.740;2023-01-10T00:56:57;3.22;;;1.90;;
60018;SDS011;45870;42.528;26.740;2023-01-10T00:59:23;9.25;;;3.33;;
60018;SDS011;45870;42.528;26.740;2023-01-10T01:01:49;3.33;;;1.98;;
60018;SDS011;45870;42.528;26.740;2023-01-10T01:04:16;3.17;;;2.25;;
60018;SDS011;45870;42.528;26.740;2023-01-10T01:06:42;6.57;;;2.90;;
60018;SDS011;45870;42.528;26.740;2023-01-10T01:09:09;2.05;;;1.40;;
60018;SDS011;45870;42.528;26.740;2023-01-10T01:11:35;2.72;;;1.48;;
60018;SDS011;45870;42.528;26.740;2023-01-10T01:14:01;3.83;;;2.60;;
60018;SDS011;45870;42.528;26.740;2023-01-10T01:16:27;12.02;;;2.83;;
60018;SDS011;45870;42.528;26.740;2023-01-10T01:18:52;4.82;;;2.63;;
60018;SDS011;45870;42.528;26.740;2023-01-10T01:21:18;2.75;;;1.08;;
60018;SDS011;45870;42.528;26.740;2023-01-10T01:23:45;3.97;;;2.13;;
60018;SDS011;45870;42.528;26.740;2023-01-10T01:26:11;8.50;;;2.65;;
60018;SDS011;45870;42.528;26.740;2023-01-10T01:28:36;3.50;;;2.53;;
60018;SDS011;45870;42.528;26.740;2023-01-10T01:31:07;3.25;;;1.63;;
60018;SDS011;45870;42.528;26.740;2023-01-10T01:33:33;5.97;;;1.83;;
60018;SDS011;45870;42.528;26.740;2023-01-10T01:36:00;8.32;;;3.03;;
60018;SDS011;45870;42.528;26.740;2023-01-10T01:38:25;7.43;;;2.38;;
60018;SDS011;45870;42.528;26.740;2023-01-10T01:40:51;6.80;;;2.83;;
60018;SDS011;45870;42.528;26.740;2023-01-10T01:43:23;4.03;;;2.63;;
60018;SDS011;45870;42.528;26.740;2023-01-10T01:45:51;2.97;;;2.15;;
60018;SDS011;45870;42.528;26.740;2023-01-10T01:51:08;3.55;;;1.95;;
60018;SDS011;45870;42.528;26.740;2023-01-10T01:53:51;3.47;;;2.28;;
60018;SDS011;45870;42.528;26.740;2023-01-10T01:56:25;2.97;;;1.63;;
60018;SDS011;45870;42.528;26.740;2023-01-10T02:01:30;3.25;;;1.75;;
60018;SDS011;45870;42.528;26.740;2023-01-10T02:03:59;4.47;;;2.33;;
60018;SDS011;45870;42.528;26.740;2023-01-10T02:06:31;4.80;;;3.22;;
60018;SDS011;45870;42.528;26.740;2023-01-10T02:09:11;4.00;;;2.80;;
60018;SDS011;45870;42.528;26.740;2023-01-10T02:11:46;14.48;;;5.18;;
60018;SDS011;45870;42.528;26.740;2023-01-10T02:14:12;4.40;;;2.60;;
60018;SDS011;45870;42.528;26.740;2023-01-10T02:16:39;5.18;;;2.40;;
60018;SDS011;45870;42.528;26.740;2023-01-10T02:30:58;8.05;;;3.42;;
60018;SDS011;45870;42.528;26.740;2023-01-10T02:39:10;4.63;;;2.70;;
60018;SDS011;45870;42.528;26.740;2023-01-10T02:47:00;9.95;;;3.00;;
60018;SDS011;45870;42.528;26.740;2023-01-10T02:49:28;5.38;;;2.00;;
60018;SDS011;45870;42.528;26.740;2023-01-10T02:51:54;3.78;;;2.40;;
60018;SDS011;45870;42.528;26.740;2023-01-10T02:54:22;4.07;;;2.55;;
60018;SDS011;45870;42.528;26.740;2023-01-10T02:59:32;5.15;;;3.08;;
60018;SDS011;45870;42.528;26.740;2023-01-10T03:05:03;6.03;;;3.63;;
60018;SDS011;45870;42.528;26.740;2023-01-10T03:07:36;8.63;;;3.45;;
60018;SDS011;45870;42.528;26.740;2023-01-10T03:10:07;6.53;;;3.67;;
60018;SDS011;45870;42.528;26.740;2023-01-10T03:12:54;8.15;;;3.40;;
60018;SDS011;45870;42.528;26.740;2023-01-10T03:15:32;5.68;;;3.05;;
60018;SDS011;45870;42.528;26.740;2023-01-10T03:18:01;5.07;;;4.20;;
60018;SDS011;45870;42.528;26.740;2023-01-10T03:20:33;7.65;;;2.58;;
60018;SDS011;45870;42.528;26.740;2023-01-10T03:23:04;3.88;;;3.17;;
60018;SDS011;45870;42.528;26.740;2023-01-10T03:25:32;3.13;;;2.83;;
60018;SDS011;45870;42.528;26.740;2023-01-10T03:28:04;7.63;;;3.25;;
60018;SDS011;45870;42.528;26.740;2023-01-10T03:30:51;9.20;;;3.85;;
60018;SDS011;45870;42.528;26.740;2023-01-10T03:33:24;9.55;;;3.15;;
60018;SDS011;45870;42.528;26.740;2023-01-10T03:35:59;2.33;;;1.83;;
60018;SDS011;45870;42.528;26.740;2023-01-10T03:38:38;5.43;;;1.95;;
60018;SDS011;45870;42.528;26.740;2023-01-10T03:41:25;9.23;;;3.20;;
60018;SDS011;45870;42.528;26.740;2023-01-10T03:50:06;2.95;;;1.80;;
60018;SDS011;45870;42.528;26.740;2023-01-10T03:52:35;4.10;;;3.08;;
60018;SDS011;45870;42.528;26.740;2023-01-10T03:55:04;11.00;;;6.10;;
60018;SDS011;45870;42.528;26.740;2023-01-10T03:57:31;10.95;;;3.72;;
60018;SDS011;45870;42.528;26.740;2023-01-10T03:59:57;6.78;;;3.17;;
60018;SDS011;45870;42.528;26.740;2023-01-10T04:02:24;8.10;;;4.78;;
60018;SDS011;45870;42.528;26.740;2023-01-10T04:04:52;10.15;;;5.53;;
60018;SDS011;45870;42.528;26.740;2023-01-10T04:07:18;11.68;;;4.07;;
60018;SDS011;45870;42.528;26.740;2023-01-10T04:09:43;6.80;;;3.95;;
60018;SDS011;45870;42.528;26.740;2023-01-10T04:12:09;4.72;;;3.42;;
60018;SDS011;45870;42.528;26.740;2023-01-10T04:14:35;11.25;;;3.97;;
60018;SDS011;45870;42.528;26.740;2023-01-10T04:17:01;13.30;;;3.63;;
60018;SDS011;45870;42.528;26.740;2023-01-10T04:19:27;4.97;;;3.63;;
60018;SDS011;45870;42.528;26.740;2023-01-10T04:21:52;6.75;;;3.25;;
60018;SDS011;45870;42.528;26.740;2023-01-10T04:24:18;4.15;;;2.60;;
60018;SDS011;45870;42.528;26.740;2023-01-10T04:26:44;5.30;;;2.70;;
60018;SDS011;45870;42.528;26.740;2023-01-10T04:29:09;8.77;;;3.17;;
60018;SDS011;45870;42.528;26.740;2023-01-10T04:31:35;9.85;;;3.70;;
60018;SDS011;45870;42.528;26.740;2023-01-10T04:34:04;5.53;;;3.28;;
60018;SDS011;45870;42.528;26.740;2023-01-10T04:36:30;6.30;;;3.20;;
60018;SDS011;45870;42.528;26.740;2023-01-10T04:38:56;4.55;;;3.55;;
60018;SDS011;45870;42.528;26.740;2023-01-10T04:41:22;8.10;;;3.22;;
60018;SDS011;45870;42.528;26.740;2023-01-10T04:43:47;7.03;;;4.88;;
60018;SDS011;45870;42.528;26.740;2023-01-10T04:46:15;6.78;;;4.05;;
60018;SDS011;45870;42.528;26.740;2023-01-10T04:48:41;7.03;;;3.72;;
60018;SDS011;45870;42.528;26.740;2023-01-10T04:51:07;6.60;;;4.30;;
60018;SDS011;45870;42.528;26.740;2023-01-10T04:53:33;4.53;;;3.45;;
60018;SDS011;45870;42.528;26.740;2023-01-10T04:56:02;5.72;;;3.63;;
60018;SDS011;45870;42.528;26.740;2023-01-10T04:58:33;6.00;;;2.78;;
60018;SDS011;45870;42.528;26.740;2023-01-10T05:03:35;4.78;;;2.53;;
60018;SDS011;45870;42.528;26.740;2023-01-10T05:06:00;3.40;;;2.28;;
60018;SDS011;45870;42.528;26.740;2023-01-10T05:08:26;5.45;;;2.22;;
60018;SDS011;45870;42.528;26.740;2023-01-10T05:10:52;6.75;;;2.75;;
60018;SDS011;45870;42.528;26.740;2023-01-10T05:13:18;4.25;;;2.22;;
60018;SDS011;45870;42.528;26.740;2023-01-10T05:15:44;4.15;;;2.15;;
60018;SDS011;45870;42.528;26.740;2023-01-10T05:18:10;2.90;;;1.50;;
60018;SDS011;45870;42.528;26.740;2023-01-10T05:20:36;3.92;;;2.38;;
60018;SDS011;45870;42.528;26.740;2023-01-10T05:23:02;7.35;;;1.67;;
60018;SDS011;45870;42.528;26.740;2023-01-10T05:25:27;7.88;;;2.45;;
60018;SDS011;45870;42.528;26.740;2023-01-10T05:27:53;3.22;;;1.98;;
60018;SDS011;45870;42.528;26.740;2023-01-10T05:30:19;4.88;;;2.28;;
60018;SDS011;45870;42.528;26.740;2023-01-10T05:32:45;4.78;;;2.63;;
60018;SDS011;45870;42.528;26.740;2023-01-10T05:35:11;5.78;;;2.63;;
60018;SDS011;45870;42.528;26.740;2023-01-10T05:37:37;5.03;;;1.92;;
60018;SDS011;45870;42.528;26.740;2023-01-10T05:40:03;4.38;;;2.70;;
60018;SDS011;45870;42.528;26.740;2023-01-10T05:42:29;6.03;;;2.35;;
60018;SDS011;45870;42.528;26.740;2023-01-10T05:44:54;4.80;;;1.52;;
60018;SDS011;45870;42.528;26.740;2023-01-10T05:47:20;7.07;;;1.75;;
60018;SDS011;45870;42.528;26.740;2023-01-10T05:49:46;5.65;;;1.85;;
60018;SDS011;45870;42.528;26.740;2023-01-10T05:52:12;6.63;;;2.20;;
60018;SDS011;45870;42.528;26.740;2023-01-10T05:54:37;3.13;;;1.58;;
60018;SDS011;45870;42.528;26.740;2023-01-10T05:57:03;6.90;;;2.70;;
60018;SDS011;45870;42.528;26.740;2023-01-10T05:59:29;6.25;;;2.90;;
60018;SDS011;45870;42.528;26.740;2023-01-10T06:01:54;4.93;;;2.30;;
60018;SDS011;45870;42.528;26.740;2023-01-10T06:04:20;3.38;;;2.22;;
60018;SDS011;45870;42.528;26.740;2023-01-10T06:06:46;3.67;;;2.20;;
60018;SDS011;45870;42.528;26.740;2023-01-10T06:09:12;5.30;;;1.95;;
60018;SDS011;45870;42.528;26.740;2023-01-10T06:11:37;3.65;;;2.00;;
60018;SDS011;45870;42.528;26.740;2023-01-10T06:14:03;3.42;;;1.45;;
60018;SDS011;45870;42.528;26.740;2023-01-10T06:16:31;4.03;;;2.22;;
60018;SDS011;45870;42.528;26.740;2023-01-10T06:18:56;5.43;;;2.42;;
60018;SDS011;45870;42.528;26.740;2023-01-10T06:21:22;4.57;;;1.73;;
60018;SDS011;45870;42.528;26.740;2023-01-10T06:23:48;2.70;;;1.67;;
60018;SDS011;45870;42.528;26.740;2023-01-10T06:26:14;3.40;;;2.03;;
60018;SDS011;45870;42.528;26.740;2023-01-10T06:28:40;2.58;;;1.50;;
60018;SDS011;45870;42.528;26.740;2023-01-10T06:31:06;5.35;;;2.47;;
60018;SDS011;45870;42.528;26.740;2023-01-10T06:33:32;3.10;;;2.13;;
60018;SDS011;45870;42.528;26.740;2023-01-10T06:35:59;3.35;;;1.58;;
60018;SDS011;45870;42.528;26.740;2023-01-10T06:38:24;3.38;;;1.90;;
60018;SDS011;45870;42.528;26.740;2023-01-10T06:40:50;5.63;;;2.20;;
60018;SDS011;45870;42.528;26.740;2023-01-10T06:43:18;6.57;;;2.83;;
60018;SDS011;45870;42.528;26.740;2023-01-10T06:45:44;4.68;;;2.38;;
60018;SDS011;45870;42.528;26.740;2023-01-10T06:48:10;3.00;;;1.35;;
60018;SDS011;45870;42.528;26.740;2023-01-10T06:50:35;2.42;;;1.90;;
60018;SDS011;45870;42.528;26.740;2023-01-10T06:53:02;4.38;;;1.83;;
60018;SDS011;45870;42.528;26.740;2023-01-10T06:55:29;4.65;;;1.88;;
60018;SDS011;45870;42.528;26.740;2023-01-10T06:57:58;3.22;;;2.08;;
60018;SDS011;45870;42.528;26.740;2023-01-10T07:00:25;4.75;;;1.95;;
60018;SDS011;45870;42.528;26.740;2023-01-10T07:02:53;1.85;;;1.05;;
60018;SDS011;45870;42.528;26.740;2023-01-10T07:05:20;2.65;;;1.13;;
60018;SDS011;45870;42.528;26.740;2023-01-10T07:07:46;4.28;;;1.77;;
60018;SDS011;45870;42.528;26.740;2023-01-10T07:10:12;5.03;;;2.90;;
60018;SDS011;45870;42.528;26.740;2023-01-10T07:12:38;3.78;;;2.13;;
60018;SDS011;45870;42.528;26.740;2023-01-10T07:15:04;4.05;;;2.00;;
60018;SDS011;45870;42.528;26.740;2023-01-10T07:17:30;5.45;;;2.40;;
60018;SDS011;45870;42.528;26.740;2023-01-10T07:19:56;3.47;;;1.80;;
60018;SDS011;45870;42.528;26.740;2023-01-10T07:22:22;4.82;;;1.92;;
60018;SDS011;45870;42.528;26.740;2023-01-10T07:24:47;3.25;;;2.20;;
60018;SDS011;45870;42.528;26.740;2023-01-10T07:27:13;3.92;;;2.17;;
60018;SDS011;45870;42.528;26.740;2023-01-10T07:29:38;5.45;;;2.22;;
60018;SDS011;45870;42.528;26.740;2023-01-10T07:32:04;2.90;;;1.95;;
60018;SDS011;45870;42.528;26.740;2023-01-10T07:34:30;6.60;;;2.55;;
60018;SDS011;45870;42.528;26.740;2023-01-10T07:36:56;6.25;;;1.58;;
60018;SDS011;45870;42.528;26.740;2023-01-10T07:39:22;4.75;;;2.15;;
60018;SDS011;45870;42.528;26.740;2023-01-10T07:41:47;3.58;;;1.92;;
60018;SDS011;45870;42.528;26.740;2023-01-10T07:44:14;3.97;;;2.33;;
60018;SDS011;45870;42.528;26.740;2023-01-10T07:46:40;5.80;;;3.15;;
60018;SDS011;45870;42.528;26.740;2023-01-10T07:49:06;4.90;;;2.05;;
60018;SDS011;45870;42.528;26.740;2023-01-10T07:51:32;3.97;;;2.42;;
60018;SDS011;45870;42.528;26.740;2023-01-10T07:53:58;3.40;;;1.67;;
60018;SDS011;45870;42.528;26.740;2023-01-10T07:56:24;3.20;;;1.65;;
60018;SDS011;45870;42.528;26.740;2023-01-10T07:58:50;3.50;;;1.88;;
60018;SDS011;45870;42.528;26.740;2023-01-10T08:01:15;6.00;;;2.50;;
60018;SDS011;45870;42.528;26.740;2023-01-10T08:03:41;5.15;;;2.15;;
60018;SDS011;45870;42.528;26.740;2023-01-10T08:06:07;8.00;;;2.97;;
60018;SDS011;45870;42.528;26.740;2023-01-10T08:08:35;5.63;;;3.05;;
60018;SDS011;45870;42.528;26.740;2023-01-10T08:11:01;7.50;;;2.28;;
60018;SDS011;45870;42.528;26.740;2023-01-10T08:13:28;6.72;;;1.98;;
60018;SDS011;45870;42.528;26.740;2023-01-10T08:15:54;5.47;;;2.58;;
60018;SDS011;45870;42.528;26.740;2023-01-10T08:18:20;3.10;;;2.10;;
60018;SDS011;45870;42.528;26.740;2023-01-10T08:20:47;4.38;;;2.28;;
60018;SDS011;45870;42.528;26.740;2023-01-10T08:23:14;4.00;;;2.47;;
60018;SDS011;45870;42.528;26.740;2023-01-10T08:25:40;5.03;;;2.10;;
60018;SDS011;45870;42.528;26.740;2023-01-10T08:28:06;5.22;;;2.30;;
60018;SDS011;45870;42.528;26.740;2023-01-10T08:30:32;5.53;;;2.33;;
60018;SDS011;45870;42.528;26.740;2023-01-10T08:32:57;7.47;;;2.75;;
60018;SDS011;45870;42.528;26.740;2023-01-10T08:35:26;7.53;;;2.15;;
60018;SDS011;45870;42.528;26.740;2023-01-10T08:37:52;4.88;;;1.65;;
60018;SDS011;45870;42.528;26.740;2023-01-10T08:40:17;4.15;;;1.92;;
60018;SDS011;45870;42.528;26.740;2023-01-10T08:42:43;4.53;;;2.55;;
60018;SDS011;45870;42.528;26.740;2023-01-10T08:45:09;2.17;;;1.42;;
60018;SDS011;45870;42.528;26.740;2023-01-10T08:47:35;6.15;;;2.75;;
60018;SDS011;45870;42.528;26.740;2023-01-10T08:50:01;2.65;;;1.83;;
60018;SDS011;45870;42.528;26.740;2023-01-10T08:52:27;2.22;;;1.65;;
60018;SDS011;45870;42.528;26.740;2023-01-10T08:54:52;5.47;;;2.38;;
60018;SDS011;45870;42.528;26.740;2023-01-10T08:57:18;2.33;;;1.40;;
60018;SDS011;45870;42.528;26.740;2023-01-10T08:59:44;4.30;;;2.20;;
60018;SDS011;45870;42.528;26.740;2023-01-10T09:02:12;5.72;;;2.22;;
60018;SDS011;45870;42.528;26.740;2023-01-10T09:04:39;4.90;;;2.17;;
60018;SDS011;45870;42.528;26.740;2023-01-10T09:07:04;23.10;;;2.20;;
60018;SDS011;45870;42.528;26.740;2023-01-10T09:09:30;4.88;;;2.42;;
60018;SDS011;45870;42.528;26.740;2023-01-10T09:11:56;4.22;;;2.00;;
60018;SDS011;45870;42.528;26.740;2023-01-10T09:14:21;3.05;;;2.05;;
60018;SDS011;45870;42.528;26.740;2023-01-10T09:16:48;3.08;;;1.95;;
60018;SDS011;45870;42.528;26.740;2023-01-10T09:19:16;6.18;;;1.70;;
60018;SDS011;45870;42.528;26.740;2023-01-10T09:21:42;7.15;;;1.70;;
60018;SDS011;45870;42.528;26.740;2023-01-10T09:24:07;4.68;;;1.80;;
60018;SDS011;45870;42.528;26.740;2023-01-10T09:26:34;4.15;;;2.25;;
60018;SDS011;45870;42.528;26.740;2023-01-10T09:29:00;6.43;;;2.53;;
60018;SDS011;45870;42.528;26.740;2023-01-10T09:31:25;5.22;;;1.77;;
60018;SDS011;45870;42.528;26.740;2023-01-10T09:33:51;6.72;;;2.42;;
60018;SDS011;45870;42.528;26.740;2023-01-10T09:36:17;2.97;;;1.98;;
60018;SDS011;45870;42.528;26.740;2023-01-10T09:38:42;3.67;;;2.15;;
60018;SDS011;45870;42.528;26.740;2023-01-10T09:47:04;2.72;;;1.75;;
60018;SDS011;45870;42.528;26.740;2023-01-10T09:49:43;2.97;;;1.98;;
60018;SDS011;45870;42.528;26.740;2023-01-10T09:54:46;2.80;;;1.73;;
60018;SDS011;45870;42.528;26.740;2023-01-10T09:57:15;5.05;;;2.20;;
60018;SDS011;45870;42.528;26.740;2023-01-10T09:59:43;3.80;;;1.65;;
60018;SDS011;45870;42.528;26.740;2023-01-10T10:07:40;4.15;;;2.25;;
60018;SDS011;45870;42.528;26.740;2023-01-10T10:10:06;5.82;;;2.40;;
60018;SDS011;45870;42.528;26.740;2023-01-10T10:12:42;3.28;;;1.70;;
60018;SDS011;45870;42.528;26.740;2023-01-10T10:15:48;3.63;;;1.13;;
60018;SDS011;45870;42.528;26.740;2023-01-10T10:26:35;2.88;;;1.08;;
60018;SDS011;45870;42.528;26.740;2023-01-10T10:32:04;2.13;;;0.93;;
60018;SDS011;45870;42.528;26.740;2023-01-10T10:34:49;2.38;;;1.40;;
60018;SDS011;45870;42.528;26.740;2023-01-10T10:37:27;2.08;;;0.90;;
60018;SDS011;45870;42.528;26.740;2023-01-10T10:40:00;3.13;;;1.60;;
60018;SDS011;45870;42.528;26.740;2023-01-10T10:42:32;4.40;;;1.73;;
60018;SDS011;45870;42.528;26.740;2023-01-10T10:45:03;4.72;;;1.85;;
60018;SDS011;45870;42.528;26.740;2023-01-10T10:47:33;2.88;;;1.38;;
60018;SDS011;45870;42.528;26.740;2023-01-10T10:52:40;3.05;;;1.38;;
60018;SDS011;45870;42.528;26.740;2023-01-10T10:55:12;3.78;;;1.58;;
60018;SDS011;45870;42.528;26.740;2023-01-10T10:57:40;3.05;;;1.45;;
60018;SDS011;45870;42.528;26.740;2023-01-10T11:00:09;2.88;;;1.05;;
60018;SDS011;45870;42.528;26.740;2023-01-10T11:02:42;5.30;;;2.17;;
60018;SDS011;45870;42.528;26.740;2023-01-10T11:05:18;4.50;;;2.15;;
60018;SDS011;45870;42.528;26.740;2023-01-10T11:07:48;6.85;;;1.95;;
60018;SDS011;45870;42.528;26.740;2023-01-10T11:10:20;7.03;;;2.55;;
60018;SDS011;45870;42.528;26.740;2023-01-10T11:13:01;4.88;;;1.85;;
60018;SDS011;45870;42.528;26.740;2023-01-10T11:15:39;3.17;;;2.40;;
60018;SDS011;45870;42.528;26.740;2023-01-10T11:18:15;10.00;;;2.22;;
60018;SDS011;45870;42.528;26.740;2023-01-10T11:21:05;3.85;;;1.58;;
60018;SDS011;45870;42.528;26.740;2023-01-10T11:26:03;4.40;;;2.10;;
60018;SDS011;45870;42.528;26.740;2023-01-10T11:28:31;3.58;;;2.03;;
60018;SDS011;45870;42.528;26.740;2023-01-10T11:30:59;4.57;;;1.30;;
60018;SDS011;45870;42.528;26.740;2023-01-10T11:33:30;1.33;;;0.95;;
60018;SDS011;45870;42.528;26.740;2023-01-10T11:36:06;6.70;;;1.38;;
60018;SDS011;45870;42.528;26.740;2023-01-10T11:38:34;1.40;;;0.80;;
60018;SDS011;45870;42.528;26.740;2023-01-10T11:43:41;1.95;;;1.10;;
60018;SDS011;45870;42.528;26.740;2023-01-10T11:46:17;3.83;;;1.40;;
60018;SDS011;45870;42.528;26.740;2023-01-10T11:51:18;1.77;;;1.23;;
60018;SDS011;45870;42.528;26.740;2023-01-10T11:53:51;5.00;;;1.88;;
60018;SDS011;45870;42.528;26.740;2023-01-10T11:56:30;5.20;;;1.27;;
60018;SDS011;45870;42.528;26.740;2023-01-10T11:59:06;1.77;;;1.00;;
60018;SDS011;45870;42.528;26.740;2023-01-10T12:04:17;28.60;;;1.70;;
60018;SDS011;45870;42.528;26.740;2023-01-10T12:06:46;2.45;;;1.25;;
60018;SDS011;45870;42.528;26.740;2023-01-10T12:09:31;1.50;;;1.10;;
60018;SDS011;45870;42.528;26.740;2023-01-10T12:12:04;2.08;;;1.25;;
60018;SDS011;45870;42.528;26.740;2023-01-10T12:14:39;8.98;;;1.30;;
60018;SDS011;45870;42.528;26.740;2023-01-10T12:17:05;3.38;;;1.67;;
60018;SDS011;45870;42.528;26.740;2023-01-10T12:19:30;1.83;;;0.80;;
60018;SDS011;45870;42.528;26.740;2023-01-10T12:21:58;3.05;;;1.27;;
60018;SDS011;45870;42.528;26.740;2023-01-10T12:24:30;2.03;;;1.20;;
60018;SDS011;45870;42.528;26.740;2023-01-10T12:27:03;3.47;;;1.90;;
60018;SDS011;45870;42.528;26.740;2023-01-10T12:29:33;2.25;;;1.27;;
60018;SDS011;45870;42.528;26.740;2023-01-10T12:32:03;1.25;;;0.80;;
60018;SDS011;45870;42.528;26.740;2023-01-10T12:34:43;2.30;;;1.05;;
60018;SDS011;45870;42.528;26.740;2023-01-10T12:40:01;2.90;;;1.10;;
60018;SDS011;45870;42.528;26.740;2023-01-10T12:45:30;4.07;;;1.25;;
60018;SDS011;45870;42.528;26.740;2023-01-10T12:50:44;2.30;;;0.82;;
60018;SDS011;45870;42.528;26.740;2023-01-10T12:53:28;3.75;;;1.20;;
60018;SDS011;45870;42.528;26.740;2023-01-10T12:56:03;0.90;;;0.60;;
60018;SDS011;45870;42.528;26.740;2023-01-10T13:01:00;2.05;;;1.42;;
60018;SDS011;45870;42.528;26.740;2023-01-10T13:03:28;1.35;;;0.95;;
60018;SDS011;45870;42.528;26.740;2023-01-10T13:05:57;2.55;;;1.50;;
60018;SDS011;45870;42.528;26.740;2023-01-10T13:08:24;2.45;;;1.30;;
60018;SDS011;45870;42.528;26.740;2023-01-10T13:10:54;2.45;;;1.65;;
60018;SDS011;45870;42.528;26.740;2023-01-10T13:13:33;2.13;;;0.90;;
60018;SDS011;45870;42.528;26.740;2023-01-10T13:19:05;0.65;;;0.38;;
60018;SDS011;45870;42.528;26.740;2023-01-10T13:21:55;4.28;;;1.00;;
60018;SDS011;45870;42.528;26.740;2023-01-10T13:24:44;1.25;;;0.82;;
60018;SDS011;45870;42.528;26.740;2023-01-10T13:27:28;2.53;;;1.00;;
60018;SDS011;45870;42.528;26.740;2023-01-10T13:29:59;3.15;;;1.27;;
60018;SDS011;45870;42.528;26.740;2023-01-10T13:32:27;1.55;;;0.85;;
60018;SDS011;45870;42.528;26.740;2023-01-10T13:35:08;1.95;;;1.02;;
60018;SDS011;45870;42.528;26.740;2023-01-10T13:37:38;1.40;;;0.85;;
60018;SDS011;45870;42.528;26.740;2023-01-10T13:40:06;1.25;;;1.00;;
60018;SDS011;45870;42.528;26.740;2023-01-10T13:42:33;1.60;;;0.80;;
60018;SDS011;45870;42.528;26.740;2023-01-10T13:45:23;3.20;;;1.45;;
60018;SDS011;45870;42.528;26.740;2023-01-10T13:52:48;1.65;;;1.10;;
60018;SDS011;45870;42.528;26.740;2023-01-10T13:57:53;1.85;;;0.88;;
60018;SDS011;45870;42.528;26.740;2023-01-10T14:03:36;2.25;;;1.35;;
60018;SDS011;45870;42.528;26.740;2023-01-10T14:08:54;3.35;;;1.25;;
60018;SDS011;45870;42.528;26.740;2023-01-10T14:11:22;2.00;;;1.23;;
60018;SDS011;45870;42.528;26.740;2023-01-10T14:13:52;1.70;;;1.17;;
60018;SDS011;45870;42.528;26.740;2023-01-10T14:16:27;4.00;;;1.52;;
60018;SDS011;45870;42.528;26.740;2023-01-10T14:19:00;4.22;;;1.77;;
60018;SDS011;45870;42.528;26.740;2023-01-10T14:21:28;2.55;;;1.30;;
60018;SDS011;45870;42.528;26.740;2023-01-10T14:23:58;2.03;;;1.15;;
60018;SDS011;45870;42.528;26.740;2023-01-10T14:26:35;1.30;;;0.60;;
60018;SDS011;45870;42.528;26.740;2023-01-10T14:29:05;0.93;;;0.73;;
60018;SDS011;45870;42.528;26.740;2023-01-10T14:31:36;2.92;;;0.93;;
60018;SDS011;45870;42.528;26.740;2023-01-10T14:34:09;0.88;;;0.68;;
60018;SDS011;45870;42.528;26.740;2023-01-10T14:36:44;1.10;;;0.68;;
60018;SDS011;45870;42.528;26.740;2023-01-10T14:39:14;2.65;;;1.13;;
60018;SDS011;45870;42.528;26.740;2023-01-10T14:41:41;1.90;;;1.27;;
60018;SDS011;45870;42.528;26.740;2023-01-10T14:44:12;1.70;;;0.80;;
60018;SDS011;45870;42.528;26.740;2023-01-10T14:46:44;3.80;;;1.85;;
60018;SDS011;45870;42.528;26.740;2023-01-10T14:52:09;1.92;;;1.05;;
60018;SDS011;45870;42.528;26.740;2023-01-10T14:54:37;2.00;;;0.88;;
60018;SDS011;45870;42.528;26.740;2023-01-10T14:57:03;1.00;;;0.70;;
60018;SDS011;45870;42.528;26.740;2023-01-10T14:59:29;6.93;;;1.65;;
60018;SDS011;45870;42.528;26.740;2023-01-10T15:04:45;5.93;;;1.27;;
60018;SDS011;45870;42.528;26.740;2023-01-10T15:07:15;3.28;;;1.08;;
60018;SDS011;45870;42.528;26.740;2023-01-10T15:09:46;1.65;;;1.25;;
60018;SDS011;45870;42.528;26.740;2023-01-10T15:12:14;2.15;;;1.38;;
60018;SDS011;45870;42.528;26.740;2023-01-10T15:14:41;0.90;;;0.43;;
60018;SDS011;45870;42.528;26.740;2023-01-10T15:17:10;1.73;;;0.80;;
60018;SDS011;45870;42.528;26.740;2023-01-10T15:19:44;1.27;;;0.75;;
60018;SDS011;45870;42.528;26.740;2023-01-10T15:22:31;4.30;;;1.65;;
60018;SDS011;45870;42.528;26.740;2023-01-10T15:25:01;1.52;;;0.75;;
60018;SDS011;45870;42.528;26.740;2023-01-10T15:29:58;0.90;;;0.40;;
60018;SDS011;45870;42.528;26.740;2023-01-10T15:34:51;1.38;;;0.93;;
60018;SDS011;45870;42.528;26.740;2023-01-10T15:37:23;1.33;;;0.90;;
60018;SDS011;45870;42.528;26.740;2023-01-10T15:39:54;4.30;;;1.08;;
60018;SDS011;45870;42.528;26.740;2023-01-10T15:42:21;1.58;;;0.52;;
60018;SDS011;45870;42.528;26.740;2023-01-10T15:44:48;3.22;;;0.50;;
60018;SDS011;45870;42.528;26.740;2023-01-10T15:47:36;1.15;;;0.90;;
60018;SDS011;45870;42.528;26.740;2023-01-10T15:50:22;2.72;;;1.40;;
60018;SDS011;45870;42.528;26.740;2023-01-10T15:52:58;3.25;;;0.95;;
60018;SDS011;45870;42.528;26.740;2023-01-10T15:58:12;1.67;;;0.93;;
60018;SDS011;45870;42.528;26.740;2023-01-10T16:00:51;1.80;;;1.08;;
60018;SDS011;45870;42.528;26.740;2023-01-10T16:03:20;2.10;;;1.08;;
60018;SDS011;45870;42.528;26.740;2023-01-10T16:05:56;3.53;;;1.42;;
60018;SDS011;45870;42.528;26.740;2023-01-10T16:08:24;1.67;;;1.20;;
60018;SDS011;45870;42.528;26.740;2023-01-10T16:10:56;3.08;;;1.98;;
60018;SDS011;45870;42.528;26.740;2023-01-10T16:13:24;8.75;;;4.13;;
60018;SDS011;45870;42.528;26.740;2023-01-10T16:15:50;1.40;;;0.63;;
60018;SDS011;45870;42.528;26.740;2023-01-10T16:18:17;1.83;;;1.08;;
60018;SDS011;45870;42.528;26.740;2023-01-10T16:20:43;1.90;;;1.15;;
60018;SDS011;45870;42.528;26.740;2023-01-10T16:23:22;1.40;;;1.02;;
60018;SDS011;45870;42.528;26.740;2023-01-10T16:25:52;0.88;;;0.73;;
60018;SDS011;45870;42.528;26.740;2023-01-10T16:28:20;2.08;;;1.17;;
60018;SDS011;45870;42.528;26.740;2023-01-10T16:30:48;1.92;;;0.98;;
60018;SDS011;45870;42.528;26.740;2023-01-10T16:33:15;4.18;;;1.88;;
60018;SDS011;45870;42.528;26.740;2023-01-10T16:35:44;4.25;;;2.08;;
60018;SDS011;45870;42.528;26.740;2023-01-10T16:38:11;6.03;;;2.45;;
60018;SDS011;45870;42.528;26.740;2023-01-10T16:40:41;4.80;;;1.60;;
60018;SDS011;45870;42.528;26.740;2023-01-10T16:43:15;2.55;;;1.20;;
60018;SDS011;45870;42.528;26.740;2023-01-10T16:45:49;3.10;;;1.27;;